Main page
METAR-TAF:

METAR-TAF

Airports :

Stornoway Airport

Stornoway, Scotland

latitude: 58-13N, longitude: 006-19W, elevation: 9 m

Current weather observation

The report was made 16 minutes ago, at 04:20 UTC
Wind 15 kt from the Southwest
Temperature 6°C
Humidity 81%
Pressure 1015 hPa
Visibility 10 km or more

METAR: EGPO 210420Z AUTO 22015KT 9999 SCT031/// 06/03 Q1015

Time: 04:36 (04:36 UTC)

Forecast

The report was made 2 hours and 39 minutes ago, at 01:57 UTC
Forecast valid from 21 at 03 UTC to 21 at 12 UTC
Wind 18 kt from the South/Southwest
Visibility 10 km or more
Few clouds at a height of 2000 ft
Scattered clouds at a height of 3500 ft
Temporary
from 21 at 03 UTC to 21 at 12 UTC
Wind 26 kt from the South with gusts up to 37 kt
Visibility: 6000 m
Broken clouds at a height of 1400 ft
rain showers

TAF: EGPO 210157Z 2103/2112 20018KT 9999 FEW020 SCT035 TEMPO 2103/2112 19026G37KT 6000 SHRA BKN014

Weather observations and forecasts of more than 4000 airports (METAR and TAF reports).

The available stations are represented by yellow and red dots on the map.

Hover mouse over dot to see the name of the station.

Then click to see weather observations and forecasts.

To change the map : click on the green buttons with a black cross to zoom in, on the green button with a dash to zoom out, or on the green arrows for adjacent maps.


METAR-TAF: